Time;durP1;ratioP1;P1;durP2;ratioP2;P2;SDS_P1;SDS_P2;PMS_P1;PMS_P2;Temp;Humidity;BMP_temperature;BMP_pressure;BME280_temperature;BME280_humidity;BME280_pressure;Samples;Min_cycle;Max_cycle;Signal;HPM_P1;HPM_P2
2023/08/11 00:02:17;;;;;;;8.65;5.15;;;;;;;18.79;80.14;101862.72;5016881;28;20030;-77
2023/08/11 00:04:48;;;;;;;9.25;4.82;;;;;;;18.66;80.85;101862.00;5017197;28;20495;-77
2023/08/11 00:07:17;;;;;;;6.75;4.75;;;;;;;18.74;80.10;101865.81;5017298;28;20021;-77
2023/08/11 00:09:44;;;;;;;5.78;5.22;;;;;;;18.66;80.69;101860.16;5016845;28;20498;-77
2023/08/11 00:12:12;;;;;;;6.82;5.10;;;;;;;18.74;80.56;101873.03;5017381;28;20017;-77
2023/08/11 00:14:37;;;;;;;5.63;4.75;;;;;;;18.72;80.68;101856.09;5016970;28;20021;-77
2023/08/11 00:17:03;;;;;;;5.60;4.55;;;;;;;18.63;80.89;101852.31;5035018;28;20100;-77
2023/08/11 00:19:29;;;;;;;5.65;5.10;;;;;;;18.63;80.83;101851.47;5017050;28;20435;-77
2023/08/11 00:21:56;;;;;;;6.20;4.78;;;;;;;18.71;80.85;101857.09;5017142;28;20021;-77
2023/08/11 00:24:24;;;;;;;5.65;4.90;;;;;;;18.51;81.19;101856.00;5016243;28;20030;-77
2023/08/11 00:26:52;;;;;;;7.93;5.07;;;;;;;18.52;82.05;101858.56;5016756;28;20032;-77
2023/08/11 00:29:17;;;;;;;5.72;5.13;;;;;;;18.44;81.62;101852.91;5016235;28;20053;-77
2023/08/11 00:31:46;;;;;;;6.15;4.85;;;;;;;18.46;81.42;101864.44;5016770;28;20052;-77
2023/08/11 00:34:12;;;;;;;7.95;5.20;;;;;;;18.31;82.34;101846.81;5016612;28;20075;-77
2023/08/11 00:36:41;;;;;;;5.45;4.85;;;;;;;18.39;82.41;101857.84;5034740;28;20033;-77
2023/08/11 00:39:07;;;;;;;6.70;4.68;;;;;;;18.38;82.59;101857.00;5016388;28;20044;-77
2023/08/11 00:41:32;;;;;;;8.30;5.28;;;;;;;18.27;83.30;101861.53;5016972;28;20468;-77
2023/08/11 00:44:00;;;;;;;6.22;5.10;;;;;;;18.24;83.57;101851.84;5016448;28;20075;-77
2023/08/11 00:46:28;;;;;;;5.32;4.82;;;;;;;18.07;83.82;101846.94;5034475;28;20017;-77
2023/08/11 00:48:57;;;;;;;5.57;4.85;;;;;;;18.15;83.49;101849.88;5016218;28;20052;-77
2023/08/11 00:51:24;;;;;;;;;;;;;;;18.45;81.02;101848.41;5016891;28;20091;-77
2023/08/11 00:53:53;;;;;;;6.65;4.80;;;;;;;18.04;83.65;101836.41;5012487;28;20395;-77
2023/08/11 00:56:22;;;;;;;6.15;5.15;;;;;;;18.07;83.32;101828.94;5029856;28;20054;-77
2023/08/11 00:58:51;;;;;;;;;;;;;;;18.35;81.19;101832.13;5029918;28;20018;-78
2023/08/11 01:01:18;;;;;;;6.00;5.35;;;;;;;18.09;83.17;101832.38;5013114;28;19909;-77
2023/08/11 01:03:47;;;;;;;6.85;5.97;;;;;;;18.00;83.50;101824.16;5029363;28;20485;-77
2023/08/11 01:06:18;;;;;;;8.57;5.60;;;;;;;17.89;84.42;101825.00;5029333;28;20060;-77
2023/08/11 01:09:05;;;;;;;8.05;6.25;;;;;;;17.96;83.88;101820.84;5013819;28;20450;-77
2023/08/11 01:12:07;;;;;;;8.48;6.88;;;;;;;17.87;84.83;101829.66;5012729;28;20453;-77
2023/08/11 01:14:50;;;;;;;7.68;6.18;;;;;;;17.95;84.16;101826.38;5013895;28;20397;-77
2023/08/11 01:17:19;;;;;;;8.07;7.15;;;;;;;17.86;84.21;101823.41;5029305;28;20037;-77
2023/08/11 01:19:45;;;;;;;10.57;7.50;;;;;;;17.79;83.88;101811.41;5012627;28;20049;-77
2023/08/11 01:22:15;;;;;;;9.40;8.00;;;;;;;17.84;84.08;101816.44;5029106;28;20022;-76
2023/08/11 01:24:43;;;;;;;8.95;6.13;;;;;;;17.79;84.60;101807.84;5012055;28;20481;-77
2023/08/11 01:27:09;;;;;;;7.95;6.53;;;;;;;17.87;84.44;101827.81;5028938;28;20037;-77
2023/08/11 01:29:34;;;;;;;8.90;6.45;;;;;;;17.79;84.51;101808.72;5013916;28;20073;-77
2023/08/11 01:32:02;;;;;;;8.90;6.90;;;;;;;17.75;84.66;101815.28;5028805;28;20532;-77
2023/08/11 01:34:27;;;;;;;7.70;6.78;;;;;;;17.84;84.44;101821.81;5028823;28;20394;-77
2023/08/11 01:36:59;;;;;;;11.13;7.20;;;;;;;17.76;84.39;101825.06;5013552;28;20018;-77
2023/08/11 01:39:24;;;;;;;7.57;6.72;;;;;;;17.66;84.24;101814.16;5027928;28;20034;-77
2023/08/11 01:41:50;;;;;;;8.18;6.35;;;;;;;17.47;84.84;101797.72;5028718;28;20060;-77
2023/08/11 01:44:15;;;;;;;8.80;7.07;;;;;;;17.67;84.92;101812.31;5028515;28;20091;-78
2023/08/11 01:46:42;;;;;;;8.88;7.55;;;;;;;17.57;84.96;101814.03;5028668;28;20026;-77
2023/08/11 01:49:10;;;;;;;11.93;7.63;;;;;;;17.60;84.96;101811.94;5028627;28;20022;-77
2023/08/11 01:51:38;;;;;;;8.75;7.90;;;;;;;17.57;85.10;101812.19;5013536;28;20022;-77
2023/08/11 01:54:06;;;;;;;8.77;7.28;;;;;;;17.46;85.09;101807.63;5027783;28;20041;-77
2023/08/11 01:56:31;;;;;;;9.23;8.35;;;;;;;17.32;86.12;101807.81;5028468;28;20113;-77
2023/08/11 01:58:57;;;;;;;10.50;8.25;;;;;;;17.38;86.44;101809.19;5013315;28;20133;-77
2023/08/11 02:01:22;;;;;;;11.10;8.65;;;;;;;17.45;85.61;101805.06;5013509;28;20022;-77
2023/08/11 02:03:51;;;;;;;9.18;8.38;;;;;;;17.43;85.52;101805.19;5012032;28;20097;-77
2023/08/11 02:06:16;;;;;;;8.73;7.93;;;;;;;17.27;86.37;101793.03;5028306;28;20037;-77
2023/08/11 02:08:41;;;;;;;8.57;7.78;;;;;;;17.14;86.68;101779.66;5027708;28;20042;-76
2023/08/11 02:11:08;;;;;;;10.52;7.57;;;;;;;17.25;86.52;101791.31;5028239;28;20210;-77
2023/08/11 02:13:34;;;;;;;8.93;7.43;;;;;;;17.26;86.45;101808.28;5011878;28;20112;-77
2023/08/11 02:16:01;;;;;;;10.43;8.90;;;;;;;17.29;86.40;101794.63;5028254;28;20095;-77
2023/08/11 02:18:27;;;;;;;8.10;7.30;;;;;;;17.32;86.10;101801.59;5028233;28;20377;-77
2023/08/11 02:20:52;;;;;;;9.00;8.20;;;;;;;17.22;86.50;101791.53;5011549;28;20033;-77
2023/08/11 02:23:20;;;;;;;9.27;8.35;;;;;;;17.27;86.46;101799.28;5012941;28;20024;-77
2023/08/11 02:25:46;;;;;;;10.00;9.00;;;;;;;17.21;86.61;101789.84;5012788;28;20018;-76
2023/08/11 02:28:12;;;;;;;10.32;9.20;;;;;;;17.05;87.36;101794.66;5027979;28;20385;-77
2023/08/11 02:30:41;;;;;;;9.75;8.48;;;;;;;17.11;87.11;101793.34;5012998;28;20547;-77
2023/08/11 02:33:07;;;;;;;8.82;8.02;;;;;;;17.11;87.24;101802.25;5011374;28;20076;-77
2023/08/11 02:35:32;;;;;;;9.88;8.57;;;;;;;16.95;87.38;101791.81;5027825;28;20033;-77
2023/08/11 02:37:58;;;;;;;11.70;8.85;;;;;;;16.80;87.52;101776.84;5012739;28;20362;-77
2023/08/11 02:40:24;;;;;;;12.27;9.50;;;;;;;16.97;87.59;101791.66;5011948;28;20072;-77
2023/08/11 02:42:54;;;;;;;9.70;8.80;;;;;;;17.07;87.45;101805.31;5027868;28;20144;-77
2023/08/11 02:45:19;;;;;;;11.65;9.80;;;;;;;16.96;87.82;101806.94;5012544;28;20374;-77
2023/08/11 02:47:45;;;;;;;9.98;8.98;;;;;;;16.91;88.00;101806.47;5012756;28;20028;-77
2023/08/11 02:50:11;;;;;;;12.57;10.18;;;;;;;16.90;87.98;101796.66;5027281;28;20022;-76
2023/08/11 02:52:39;;;;;;;12.10;9.90;;;;;;;16.89;87.85;101807.53;5010446;28;20397;-77
2023/08/11 02:55:05;;;;;;;12.57;10.32;;;;;;;16.91;88.14;101808.25;5010538;28;20056;-77
2023/08/11 02:57:31;;;;;;;12.45;10.02;;;;;;;16.80;88.40;101793.81;5011732;28;20415;-77
2023/08/11 02:59:57;;;;;;;13.48;10.57;;;;;;;16.79;88.21;101800.16;5012403;28;20021;-77
2023/08/11 03:02:26;;;;;;;12.18;10.05;;;;;;;16.82;88.43;101807.09;5011468;28;20026;-77
2023/08/11 03:04:56;;;;;;;11.05;9.90;;;;;;;16.71;88.43;101781.03;5011041;28;20084;-76
2023/08/11 03:07:22;;;;;;;11.68;10.55;;;;;;;16.69;88.62;101791.03;5012481;28;20030;-77
2023/08/11 03:09:48;;;;;;;12.20;10.98;;;;;;;16.78;88.73;101794.88;5011945;28;20389;-76
2023/08/11 03:12:15;;;;;;;12.27;11.07;;;;;;;16.67;89.19;101795.63;5011337;28;20022;-76
2023/08/11 03:14:41;;;;;;;12.27;10.93;;;;;;;16.71;88.80;101794.47;5012794;28;20022;-77
2023/08/11 03:17:09;;;;;;;11.70;10.50;;;;;;;16.66;89.38;101785.03;5012636;28;20103;-77
2023/08/11 03:19:35;;;;;;;13.00;10.05;;;;;;;16.64;89.14;101784.28;5012431;28;20026;-77
2023/08/11 03:22:03;;;;;;;12.77;10.70;;;;;;;16.73;88.93;101795.19;5011211;28;20026;-77
2023/08/11 03:24:29;;;;;;;11.63;10.43;;;;;;;16.66;88.95;101790.41;5010939;28;20029;-76
2023/08/11 03:26:54;;;;;;;11.95;10.75;;;;;;;16.62;89.53;101789.78;5011359;28;20389;-76
2023/08/11 03:29:19;;;;;;;12.15;10.93;;;;;;;16.67;89.20;101797.47;5014111;28;20026;-77
2023/08/11 03:31:45;;;;;;;12.23;10.88;;;;;;;16.71;89.11;101796.28;5013581;28;20117;-77
2023/08/11 03:34:10;;;;;;;13.55;11.45;;;;;;;16.45;90.01;101785.63;5013178;28;20029;-76
2023/08/11 03:36:38;;;;;;;12.48;11.05;;;;;;;16.44;90.08;101780.34;5013176;28;20548;-77
2023/08/11 03:39:04;;;;;;;13.65;11.20;;;;;;;16.56;89.34;101772.28;5011600;28;20117;-77
2023/08/11 03:41:31;;;;;;;13.27;11.35;;;;;;;16.54;89.54;101779.56;5011194;28;20072;-77
2023/08/11 03:43:59;;;;;;;14.23;12.18;;;;;;;16.56;89.82;101784.84;5012152;28;20401;-77
2023/08/11 03:46:27;;;;;;;18.58;12.10;;;;;;;16.55;89.84;101775.06;5010917;28;20025;-77
2023/08/11 03:48:52;;;;;;;12.70;11.43;;;;;;;16.58;89.80;101780.19;5010540;28;20026;-77
2023/08/11 03:51:22;;;;;;;14.13;12.63;;;;;;;16.31;90.31;101762.44;5010693;28;20113;-77
2023/08/11 03:53:48;;;;;;;13.75;12.27;;;;;;;16.52;90.12;101776.13;5010210;28;20476;-77
2023/08/11 03:56:13;;;;;;;15.50;12.25;;;;;;;16.32;90.18;101769.56;5010655;28;20101;-77
2023/08/11 03:58:39;;;;;;;14.93;13.35;;;;;;;16.35;90.87;101781.88;5010791;28;20029;-77
2023/08/11 04:01:07;;;;;;;14.45;12.95;;;;;;;16.45;90.54;101777.56;5010915;28;20018;-77
2023/08/11 04:03:32;;;;;;;15.80;12.65;;;;;;;16.30;90.80;101776.00;5013137;28;20060;-77
2023/08/11 04:05:58;;;;;;;17.42;13.50;;;;;;;16.40;90.79;101781.56;5014176;28;20022;-77
2023/08/11 04:08:25;;;;;;;15.18;13.57;;;;;;;16.31;90.65;101781.25;5013731;28;20040;-77
2023/08/11 04:10:51;;;;;;;15.48;13.85;;;;;;;16.30;90.77;101774.16;5014133;28;20029;-77
2023/08/11 04:13:19;;;;;;;14.75;12.88;;;;;;;16.37;90.74;101771.03;5013846;28;20026;-77
2023/08/11 04:15:46;;;;;;;14.55;13.05;;;;;;;16.38;90.83;101787.03;5013874;28;20032;-76
2023/08/11 04:18:14;;;;;;;17.00;13.95;;;;;;;16.27;91.18;101777.06;5013850;28;20064;-77
2023/08/11 04:20:40;;;;;;;18.27;14.48;;;;;;;16.38;90.68;101783.47;5013630;28;20055;-77
2023/08/11 04:23:05;;;;;;;18.52;13.80;;;;;;;16.32;91.01;101787.47;5013767;28;20022;-77
2023/08/11 04:25:34;;;;;;;18.15;13.85;;;;;;;16.32;91.28;101787.47;5014672;28;20025;-77
2023/08/11 04:28:03;;;;;;;16.40;14.73;;;;;;;16.32;91.13;101784.78;5014862;28;20064;-77
2023/08/11 04:30:32;;;;;;;15.88;14.13;;;;;;;16.29;91.36;101793.06;5014672;28;20076;-77
2023/08/11 04:32:58;;;;;;;20.95;14.55;;;;;;;16.30;91.38;101784.06;5013552;28;20044;-77
2023/08/11 04:35:24;;;;;;;15.68;14.10;;;;;;;16.24;91.60;101776.44;5014492;28;20072;-77
2023/08/11 04:37:50;;;;;;;16.27;14.32;;;;;;;16.19;92.10;101779.44;5014630;28;20096;-76
2023/08/11 04:40:16;;;;;;;16.88;14.32;;;;;;;16.22;91.86;101776.53;5014311;28;20104;-76
2023/08/11 04:42:42;;;;;;;15.20;13.73;;;;;;;16.28;91.85;101784.16;5013450;28;20026;-77
2023/08/11 04:45:13;;;;;;;15.88;14.20;;;;;;;16.19;92.05;101776.78;5014375;28;20030;-77
2023/08/11 04:47:39;;;;;;;17.40;14.38;;;;;;;16.17;91.77;101753.69;5013443;28;20080;-76
2023/08/11 04:50:07;;;;;;;18.60;14.35;;;;;;;16.20;92.18;101765.06;5012944;28;20107;-76
2023/08/11 04:52:38;;;;;;;19.27;14.55;;;;;;;16.27;92.38;101777.06;5013207;28;20033;-77
2023/08/11 04:55:08;;;;;;;17.42;13.30;;;;;;;16.29;91.99;101764.38;5029478;28;20447;-77
2023/08/11 04:57:35;;;;;;;18.88;15.20;;;;;;;16.27;92.78;101771.72;5034084;28;20029;-77
2023/08/11 05:00:02;;;;;;;15.40;13.80;;;;;;;16.25;92.40;101752.16;5033930;28;20025;-77
2023/08/11 05:02:27;;;;;;;19.45;14.20;;;;;;;16.26;92.60;101747.66;5034221;28;20032;-77
2023/08/11 05:04:53;;;;;;;21.40;15.60;;;;;;;16.34;92.42;101751.50;5034159;28;20017;-77
2023/08/11 05:07:19;;;;;;;17.90;14.32;;;;;;;16.39;92.67;101753.84;5016207;28;20461;-77
2023/08/11 05:09:44;;;;;;;18.35;13.68;;;;;;;16.39;92.14;101756.53;5015654;28;20026;-77
2023/08/11 05:12:12;;;;;;;15.25;13.48;;;;;;;16.27;92.61;101735.97;5016055;28;20103;-77
2023/08/11 05:14:37;;;;;;;17.40;13.30;;;;;;;16.31;93.61;101761.59;5033027;28;20045;-77
2023/08/11 05:17:03;;;;;;;21.25;14.43;;;;;;;16.41;93.26;101749.22;5033707;28;20053;-77
2023/08/11 05:19:31;;;;;;;19.05;14.05;;;;;;;16.43;93.20;101747.28;5015858;28;20099;-77
2023/08/11 05:21:58;;;;;;;15.60;13.60;;;;;;;16.25;93.73;101730.69;5016090;28;20057;-77
2023/08/11 05:24:26;;;;;;;20.05;14.68;;;;;;;16.40;93.75;101752.03;5033163;28;20499;-76
2023/08/11 05:26:54;;;;;;;16.02;14.07;;;;;;;16.52;93.53;101759.16;5033490;28;20025;-76
2023/08/11 05:29:19;;;;;;;17.58;13.65;;;;;;;16.69;91.64;101758.78;5015542;28;20021;-76
2023/08/11 05:31:47;;;;;;;17.50;13.30;;;;;;;16.66;92.67;101755.47;5015785;28;20032;-76
2023/08/11 05:34:15;;;;;;;15.65;13.15;;;;;;;16.75;92.46;101746.72;5015361;28;20030;-76
2023/08/11 05:36:40;;;;;;;14.25;12.73;;;;;;;16.84;91.09;101745.22;5015766;28;20063;-77
2023/08/11 05:39:08;;;;;;;15.95;12.52;;;;;;;16.78;91.59;101742.00;5015121;28;20045;-77
2023/08/11 05:41:33;;;;;;;16.55;12.55;;;;;;;16.89;90.88;101749.28;5015657;28;20053;-76
2023/08/11 05:44:01;;;;;;;16.67;12.55;;;;;;;16.98;90.15;101747.72;5015436;28;20051;-77
2023/08/11 05:46:30;;;;;;;20.80;12.27;;;;;;;17.05;89.54;101761.53;5015440;28;20483;-77
2023/08/11 05:48:56;;;;;;;;;;;;;;;17.20;89.21;101758.53;5033286;28;20363;-77
2023/08/11 05:51:21;;;;;;;15.63;11.82;;;;;;;17.09;89.63;101737.00;5033121;28;19967;-77
2023/08/11 05:53:47;;;;;;;15.55;11.93;;;;;;;17.22;88.36;101756.59;5032388;28;20053;-76
2023/08/11 05:56:12;;;;;;;21.25;12.15;;;;;;;17.28;88.51;101752.56;5033162;28;20108;-77
2023/08/11 05:58:40;;;;;;;14.05;12.00;;;;;;;17.25;89.11;101748.28;5033099;28;20029;-77
2023/08/11 06:01:06;;;;;;;14.15;10.88;;;;;;;17.29;91.18;101753.44;5015197;28;20018;-77
2023/08/11 06:03:32;;;;;;;19.05;11.75;;;;;;;17.47;88.21;101758.25;5015118;28;20108;-76
2023/08/11 06:06:09;;;;;;;13.35;11.23;;;;;;;17.52;87.90;101754.34;5032885;28;20021;-77
2023/08/11 06:08:34;;;;;;;12.68;10.48;;;;;;;17.63;87.18;101757.06;5014519;28;20029;-77
2023/08/11 06:11:00;;;;;;;16.17;10.65;;;;;;;17.71;86.94;101751.94;5032839;28;20029;-76
2023/08/11 06:13:27;;;;;;;14.13;10.10;;;;;;;17.64;87.15;101724.63;5032537;28;20037;-76
2023/08/11 06:15:53;;;;;;;16.70;10.80;;;;;;;17.88;85.91;101750.59;5014972;28;20037;-77
2023/08/11 06:18:18;;;;;;;14.07;10.23;;;;;;;17.90;87.23;101757.59;5032507;28;20029;-77
2023/08/11 06:20:44;;;;;;;15.10;10.88;;;;;;;18.02;85.77;101754.91;5014910;28;20034;-76
2023/08/11 06:23:10;;;;;;;13.30;10.10;;;;;;;18.10;86.20;101756.00;5015117;28;20022;-77
2023/08/11 06:25:36;;;;;;;12.63;9.35;;;;;;;18.20;85.79;101769.56;5014474;28;20488;-77
2023/08/11 06:28:05;;;;;;;12.75;9.07;;;;;;;18.26;85.50;101752.91;5014800;28;20124;-76
2023/08/11 06:30:32;;;;;;;12.45;9.23;;;;;;;18.37;84.16;101752.03;5014548;28;20407;-77
2023/08/11 06:32:58;;;;;;;14.30;9.07;;;;;;;18.53;84.02;101759.72;5032847;28;20017;-76
2023/08/11 06:35:24;;;;;;;13.75;8.38;;;;;;;18.55;82.96;101753.22;5032178;28;20037;-76
2023/08/11 06:37:49;;;;;;;11.30;8.68;;;;;;;18.66;83.30;101760.44;5014632;28;20037;-77
2023/08/11 06:40:15;;;;;;;11.27;8.10;;;;;;;18.76;82.23;101764.09;5014129;28;20131;-77
2023/08/11 06:42:41;;;;;;;10.90;7.90;;;;;;;18.87;81.73;101768.59;5014627;28;20588;-77
2023/08/11 06:45:07;;;;;;;12.98;8.13;;;;;;;18.99;80.59;101780.19;5014238;28;20168;-76
2023/08/11 06:47:37;;;;;;;9.80;6.85;;;;;;;18.98;80.91;101778.50;5014638;28;20037;-76
2023/08/11 06:50:03;;;;;;;12.70;7.15;;;;;;;19.10;81.60;101773.91;5031843;28;20029;-77
2023/08/11 06:52:30;;;;;;;8.02;6.82;;;;;;;19.23;79.35;101769.19;5032419;28;20448;-76
2023/08/11 06:54:55;;;;;;;10.82;6.72;;;;;;;19.29;79.85;101768.66;5013866;28;20042;-76
2023/08/11 06:57:21;;;;;;;11.13;7.10;;;;;;;19.51;79.02;101786.56;5032131;28;20137;-77
2023/08/11 06:59:48;;;;;;;13.88;6.72;;;;;;;19.56;78.44;101787.03;5014194;28;20103;-76
2023/08/11 07:02:13;;;;;;;8.70;6.18;;;;;;;19.69;77.48;101773.34;5032063;28;20439;-76
2023/08/11 07:04:41;;;;;;;14.35;6.60;;;;;;;19.71;80.18;101788.44;5014308;28;20033;-76
2023/08/11 07:07:07;;;;;;;10.93;6.00;;;;;;;19.96;77.28;101786.28;5014575;28;20025;-77
2023/08/11 07:09:33;;;;;;;10.55;6.63;;;;;;;19.93;77.04;101754.16;5031875;28;20025;-76
2023/08/11 07:11:59;;;;;;;8.73;6.20;;;;;;;20.07;76.64;101779.94;5032196;28;20135;-77
2023/08/11 07:14:26;;;;;;;8.75;5.78;;;;;;;20.30;75.33;101775.19;5014138;28;20057;-77
2023/08/11 07:16:52;;;;;;;11.82;6.05;;;;;;;20.39;74.64;101788.72;5014222;28;20120;-77
2023/08/11 07:19:19;;;;;;;11.32;6.05;;;;;;;20.53;73.84;101787.53;5013993;28;20124;-77
2023/08/11 07:21:44;;;;;;;7.78;5.57;;;;;;;20.61;73.05;101778.69;5032023;28;20021;-77
2023/08/11 07:24:10;;;;;;;9.95;5.28;;;;;;;20.75;72.33;101783.72;5014027;28;20104;-76
2023/08/11 07:26:36;;;;;;;11.20;5.53;;;;;;;20.92;70.25;101786.72;5014637;28;20366;-77
2023/08/11 07:29:04;;;;;;;9.88;5.68;;;;;;;20.99;71.55;101795.97;5014156;28;20026;-77
2023/08/11 07:31:29;;;;;;;9.07;5.95;;;;;;;21.03;72.33;101789.28;5014135;28;20112;-77
2023/08/11 07:33:55;;;;;;;12.32;6.05;;;;;;;21.15;70.51;101792.69;5031831;28;20121;-77
2023/08/11 07:36:20;;;;;;;6.63;5.40;;;;;;;21.22;69.25;101793.84;5014385;28;20026;-77
2023/08/11 07:38:46;;;;;;;7.57;5.78;;;;;;;21.32;69.65;101797.38;5017327;28;20022;-77
2023/08/11 07:41:12;;;;;;;8.68;5.47;;;;;;;21.45;68.30;101803.41;5037650;28;20032;-77
2023/08/11 07:43:37;;;;;;;8.63;5.38;;;;;;;21.59;68.91;101783.16;5018770;28;20014;-77
2023/08/11 07:46:03;;;;;;;8.40;5.47;;;;;;;21.54;69.08;101788.16;5018746;28;20416;-77
2023/08/11 07:48:28;;;;;;;8.07;5.07;;;;;;;21.67;70.13;101795.94;5018088;28;20485;-77
2023/08/11 07:50:54;;;;;;;9.48;5.80;;;;;;;21.88;66.24;101798.44;5036380;28;20036;-77
2023/08/11 07:53:22;;;;;;;8.48;5.40;;;;;;;21.96;67.01;101791.28;5017855;28;20370;-77
2023/08/11 07:55:47;;;;;;;8.38;5.47;;;;;;;22.03;65.23;101796.13;5035125;28;20107;-77
2023/08/11 07:58:16;;;;;;;7.65;5.28;;;;;;;22.14;65.43;101790.50;5035163;28;20025;-76
2023/08/11 08:00:41;;;;;;;7.45;4.93;;;;;;;22.26;68.00;101791.22;5017212;28;20028;-78
2023/08/11 08:03:07;;;;;;;8.07;4.80;;;;;;;22.39;67.61;101798.00;5017615;28;20021;-77
2023/08/11 08:05:32;;;;;;;9.35;5.35;;;;;;;22.53;64.70;101801.19;5017394;28;20119;-77
2023/08/11 08:07:57;;;;;;;6.28;4.95;;;;;;;22.56;62.99;101782.78;5017291;28;20037;-77
2023/08/11 08:10:25;;;;;;;7.47;4.80;;;;;;;22.74;63.15;101795.50;5034780;28;20025;-77
2023/08/11 08:12:50;;;;;;;8.73;4.50;;;;;;;22.86;62.85;101795.13;5017214;28;20045;-77
2023/08/11 08:15:16;;;;;;;8.43;4.60;;;;;;;22.85;64.79;101779.00;5034907;28;20123;-77
2023/08/11 08:17:42;;;;;;;9.95;4.68;;;;;;;23.07;64.54;101797.56;5017057;28;20021;-76
2023/08/11 08:20:09;;;;;;;10.30;5.10;;;;;;;23.19;63.49;101797.34;5034902;28;20480;-77
2023/08/11 08:22:35;;;;;;;10.70;4.95;;;;;;;23.29;61.91;101788.06;5034856;28;20026;-77
2023/08/11 08:25:07;;;;;;;13.52;5.05;;;;;;;23.39;62.06;101800.72;5034615;28;20080;-77
2023/08/11 08:27:38;;;;;;;9.57;4.38;;;;;;;23.53;61.91;101792.00;5017089;28;20052;-76
2023/08/11 08:30:05;;;;;;;6.07;4.35;;;;;;;23.66;61.78;101792.44;5016610;28;20025;-77
2023/08/11 08:32:33;;;;;;;5.47;4.28;;;;;;;23.74;60.72;101797.97;5016915;28;20124;-77
2023/08/11 08:34:58;;;;;;;5.85;4.82;;;;;;;23.79;59.88;101794.75;5016718;28;20389;-77
2023/08/11 08:37:28;;;;;;;7.30;4.30;;;;;;;23.81;62.80;101800.88;5016860;28;20028;-77
2023/08/11 08:39:54;;;;;;;6.13;4.55;;;;;;;23.98;60.32;101805.41;5016154;28;20030;-77
2023/08/11 08:42:21;;;;;;;10.40;4.55;;;;;;;23.84;59.80;101789.69;5034507;28;20116;-77
2023/08/11 08:44:48;;;;;;;7.75;4.22;;;;;;;24.21;60.19;101800.25;5016556;28;20124;-77
2023/08/11 08:47:18;;;;;;;8.90;4.22;;;;;;;24.33;59.32;101802.69;5034259;28;20021;-77
2023/08/11 08:49:45;;;;;;;5.75;3.83;;;;;;;24.54;59.48;101805.00;5032856;28;20026;-77
2023/08/11 08:52:10;;;;;;;4.90;4.40;;;;;;;24.47;58.42;101802.06;5016312;28;20025;-77
2023/08/11 08:54:36;;;;;;;6.65;3.90;;;;;;;24.64;58.31;101795.66;5015891;28;20586;-77
2023/08/11 08:57:04;;;;;;;6.57;3.90;;;;;;;24.70;57.23;101800.44;5016287;28;20129;-77
2023/08/11 08:59:29;;;;;;;9.13;3.95;;;;;;;24.84;58.59;101795.38;5016395;28;20053;-77
2023/08/11 09:01:56;;;;;;;5.78;3.30;;;;;;;25.03;60.43;101794.22;5016274;28;20104;-77
2023/08/11 09:04:22;;;;;;;7.45;4.07;;;;;;;25.11;56.48;101800.50;5016136;28;20025;-77
2023/08/11 09:06:48;;;;;;;5.70;3.35;;;;;;;25.09;56.39;101796.25;5016176;28;20018;-77
2023/08/11 09:09:13;;;;;;;5.43;3.33;;;;;;;25.31;57.48;101782.00;5033449;28;20070;-77
2023/08/11 09:11:39;;;;;;;4.30;3.72;;;;;;;25.51;56.24;101798.00;5015912;28;20075;-77
2023/08/11 09:14:09;;;;;;;8.45;3.70;;;;;;;25.50;55.77;101799.88;5033858;28;20431;-77
2023/08/11 09:16:36;;;;;;;6.50;3.67;;;;;;;25.52;54.80;101806.00;5033929;28;20036;-77
2023/08/11 09:19:03;;;;;;;5.28;3.33;;;;;;;25.69;55.50;101800.53;5033506;28;20025;-77
2023/08/11 09:21:30;;;;;;;5.28;3.45;;;;;;;25.83;55.50;101789.81;5015948;28;20048;-77
2023/08/11 09:23:56;;;;;;;4.53;3.65;;;;;;;25.91;54.48;101793.53;5015334;28;20071;-77
2023/08/11 09:26:23;;;;;;;5.10;3.35;;;;;;;25.94;53.87;101791.31;5015625;28;20036;-77
2023/08/11 09:28:55;;;;;;;7.57;3.83;;;;;;;26.01;55.73;101794.19;5015795;28;20437;-77
2023/08/11 09:31:26;;;;;;;5.20;3.58;;;;;;;26.09;54.72;101791.44;5015526;28;20037;-77
2023/08/11 09:33:52;;;;;;;8.20;4.10;;;;;;;26.25;53.83;101791.38;5015709;28;20599;-77
2023/08/11 09:36:19;;;;;;;6.05;3.38;;;;;;;26.38;54.29;101787.22;5015790;28;20358;-77
2023/08/11 09:38:48;;;;;;;20.35;3.90;;;;;;;26.59;54.04;101786.63;5032725;28;20136;-77
2023/08/11 09:41:16;;;;;;;3.20;2.83;;;;;;;26.67;53.17;101779.22;5015528;28;20120;-77
2023/08/11 09:43:48;;;;;;;7.30;3.00;;;;;;;26.56;54.61;101786.97;5015614;28;20022;-78
2023/08/11 09:46:14;;;;;;;5.28;3.63;;;;;;;26.44;52.69;101784.66;5015505;28;20396;-77
2023/08/11 09:48:42;;;;;;;8.15;3.40;;;;;;;26.37;54.24;101782.78;5015385;28;20044;-77
2023/08/11 09:51:10;;;;;;;5.10;4.10;;;;;;;26.53;54.32;101780.00;5015497;28;20025;-78
2023/08/11 09:53:40;;;;;;;4.28;3.03;;;;;;;26.77;53.40;101781.75;5014760;28;20116;-77
2023/08/11 09:56:07;;;;;;;3.42;2.70;;;;;;;26.89;52.51;101782.19;5015446;28;20041;-78
2023/08/11 09:58:37;;;;;;;4.00;2.88;;;;;;;27.05;52.60;101779.31;5015206;28;20037;-77
2023/08/11 10:01:04;;;;;;;4.13;3.17;;;;;;;27.04;54.17;101780.34;5014725;28;20112;-78
2023/08/11 10:03:36;;;;;;;5.55;3.03;;;;;;;27.16;50.82;101783.53;5015085;28;20075;-78
2023/08/11 10:06:03;;;;;;;8.93;3.17;;;;;;;27.37;52.03;101793.78;5015164;28;20041;-77
2023/08/11 10:08:35;;;;;;;7.95;2.67;;;;;;;27.28;50.93;101789.41;5014547;28;20534;-77
2023/08/11 10:11:06;;;;;;;4.40;2.80;;;;;;;27.50;49.40;101801.34;5032729;28;20030;-77
2023/08/11 10:13:32;;;;;;;5.43;2.80;;;;;;;27.59;49.08;101800.22;5032484;28;20021;-77
2023/08/11 10:15:58;;;;;;;6.10;3.30;;;;;;;27.69;50.78;101781.69;5015201;28;20079;-78
2023/08/11 10:18:24;;;;;;;4.65;2.60;;;;;;;27.82;49.26;101779.16;5014856;28;20025;-78
2023/08/11 10:20:51;;;;;;;6.40;2.72;;;;;;;27.72;47.82;101783.19;5014898;28;20024;-77
2023/08/11 10:23:20;;;;;;;4.35;2.65;;;;;;;27.77;48.91;101770.66;5014659;28;20397;-78
2023/08/11 10:25:47;;;;;;;4.45;2.88;;;;;;;28.02;50.16;101786.81;5032292;28;20469;-78
2023/08/11 10:28:16;;;;;;;4.30;3.00;;;;;;;27.97;47.79;101784.66;5032573;28;20443;-78
2023/08/11 10:30:47;;;;;;;2.75;2.55;;;;;;;28.20;48.93;101778.22;5014685;28;20146;-77
2023/08/11 10:33:15;;;;;;;3.70;2.55;;;;;;;28.31;47.90;101766.78;5032354;28;20029;-77
2023/08/11 10:35:48;;;;;;;7.28;2.75;;;;;;;28.52;46.56;101771.50;5014697;28;20029;-75
2023/08/11 10:38:23;;;;;;;3.20;2.30;;;;;;;28.59;48.53;101769.69;5032197;28;20114;-76
2023/08/11 10:40:48;;;;;;;4.97;2.58;;;;;;;28.72;46.68;101771.72;5014584;28;20021;-76
2023/08/11 10:43:17;;;;;;;3.25;2.50;;;;;;;28.88;49.33;101774.19;5014373;28;20538;-76
2023/08/11 10:45:45;;;;;;;5.85;2.42;;;;;;;28.93;44.54;101770.88;5032848;28;20021;-75
2023/08/11 10:48:23;;;;;;;6.05;2.65;;;;;;;29.19;46.11;101768.41;5030240;28;20033;-77
2023/08/11 10:50:49;;;;;;;5.10;2.78;;;;;;;29.47;47.24;101766.72;5011366;28;20033;-76
2023/08/11 10:53:21;;;;;;;8.38;2.85;;;;;;;29.57;44.79;101779.06;5011036;28;20041;-75
2023/08/11 10:56:15;;;;;;;5.03;2.47;;;;;;;29.80;46.37;101778.00;5011261;28;20046;-75
2023/08/11 10:58:43;;;;;;;3.78;2.60;;;;;;;29.60;44.87;101762.19;5008340;28;20040;-75
2023/08/11 11:01:09;;;;;;;6.18;2.60;;;;;;;29.94;44.34;101766.00;5011609;28;20030;-76
2023/08/11 11:03:34;;;;;;;3.05;2.67;;;;;;;29.83;43.12;101751.00;5012873;28;20499;-76
2023/08/11 11:06:06;;;;;;;5.95;2.90;;;;;;;29.86;44.62;101761.56;5012786;28;20022;-76
2023/08/11 11:08:34;;;;;;;6.00;2.55;;;;;;;30.05;44.46;101762.69;5012261;28;20026;-77
2023/08/11 11:11:00;;;;;;;;;;;;;;;30.56;45.50;101772.44;5013079;28;20014;-76
2023/08/11 11:13:25;;;;;;;5.28;2.20;;;;;;;30.52;42.58;101773.91;5013748;28;20388;-76
2023/08/11 11:15:50;;;;;;;3.67;2.58;;;;;;;30.46;42.34;101763.75;4999099;28;20105;-76
2023/08/11 11:18:16;;;;;;;3.55;2.25;;;;;;;30.54;43.14;101758.91;4998826;28;20350;-76
2023/08/11 11:20:41;;;;;;;5.13;2.47;;;;;;;30.59;41.93;101765.69;5015183;28;20028;-76